Time;durP1;ratioP1;P1;durP2;ratioP2;P2;SDS_P1;SDS_P2;PMS_P1;PMS_P2;Temp;Humidity;BMP_temperature;BMP_pressure;BME280_temperature;BME280_humidity;BME280_pressure;Samples;Min_cycle;Max_cycle;Signal;HPM_P1;HPM_P2
2022/01/16 00:00:24;;;;;;;0.27;0.20;;;;;;;3.38;100.00;101133.97;5031604;28;20831;-52
2022/01/16 00:05:29;;;;;;;0.30;0.20;;;;;;;3.05;100.00;101102.88;5032089;28;20447;-52
2022/01/16 00:07:56;;;;;;;0.20;0.10;;;;;;;3.23;100.00;101105.75;5031869;28;20509;-51
2022/01/16 00:10:27;;;;;;;0.20;0.10;;;;;;;3.24;100.00;101096.13;5031586;28;20440;-52
2022/01/16 00:12:58;;;;;;;0.20;0.10;;;;;;;3.25;100.00;101116.28;5031659;28;20448;-52
2022/01/16 00:15:26;;;;;;;0.20;0.10;;;;;;;3.43;100.00;101124.44;5031521;28;20451;-52
2022/01/16 00:17:59;;;;;;;0.20;0.10;;;;;;;3.33;100.00;101124.28;5031794;28;20459;-51
2022/01/16 00:20:27;;;;;;;0.20;0.10;;;;;;;3.25;100.00;101135.53;5019049;28;20454;-52
2022/01/16 00:22:54;;;;;;;0.20;0.10;;;;;;;3.32;100.00;101138.28;5031595;28;20501;-52
2022/01/16 00:25:21;;;;;;;0.20;0.10;;;;;;;3.33;100.00;101133.03;5034607;28;20972;-52
2022/01/16 00:27:48;;;;;;;0.20;0.10;;;;;;;3.22;100.00;101118.88;5035013;28;20933;-52
2022/01/16 00:30:16;;;;;;;0.20;0.10;;;;;;;3.23;100.00;101123.25;5035063;28;20471;-52
2022/01/16 00:32:44;;;;;;;0.20;0.10;;;;;;;3.25;100.00;101119.78;5034995;28;20472;-52
2022/01/16 00:35:13;;;;;;;0.20;0.10;;;;;;;3.18;100.00;101098.69;5034946;28;20455;-52
2022/01/16 00:37:41;;;;;;;0.20;0.10;;;;;;;3.10;100.00;101098.56;5034874;28;20513;-52
2022/01/16 00:40:10;;;;;;;0.20;0.10;;;;;;;3.09;100.00;101102.03;5034884;28;20475;-52
2022/01/16 00:42:37;;;;;;;0.20;0.10;;;;;;;3.18;100.00;101110.06;5035159;28;20519;-52
2022/01/16 00:45:04;;;;;;;0.20;0.10;;;;;;;3.14;100.00;101099.47;5035000;28;20455;-52
2022/01/16 00:47:31;;;;;;;0.20;0.10;;;;;;;3.09;100.00;101111.66;5044845;28;20953;-52
2022/01/16 00:49:57;;;;;;;0.20;0.10;;;;;;;3.14;100.00;101113.47;5034723;28;20846;-52
2022/01/16 00:52:24;;;;;;;0.20;0.10;;;;;;;2.55;100.00;101126.53;5035444;28;20451;-52
2022/01/16 00:54:50;;;;;;;0.20;0.10;;;;;;;2.62;100.00;101107.44;5034662;28;20995;-52
2022/01/16 00:57:17;;;;;;;0.20;0.10;;;;;;;2.90;100.00;101129.78;5034765;28;20451;-52
2022/01/16 00:59:44;;;;;;;0.40;0.40;;;;;;;2.84;100.00;101121.78;5034616;28;20530;-52
2022/01/16 01:02:10;;;;;;;5.90;3.23;;;;;;;2.96;100.00;101137.72;5034618;28;20496;-52
2022/01/16 01:04:37;;;;;;;0.20;0.10;;;;;;;2.93;100.00;101121.94;5034569;28;20459;-52
2022/01/16 01:07:04;;;;;;;0.20;0.10;;;;;;;3.06;100.00;101141.41;5037296;28;20939;-52
2022/01/16 01:09:31;;;;;;;0.20;0.10;;;;;;;2.98;100.00;101141.25;5043330;28;20475;-51
2022/01/16 01:11:58;;;;;;;0.20;0.10;;;;;;;2.84;100.00;101124.41;5034174;28;20929;-52
2022/01/16 01:14:37;;;;;;;0.20;0.10;;;;;;;2.90;100.00;101121.91;5034530;28;20447;-52
2022/01/16 01:17:04;;;;;;;0.20;0.20;;;;;;;2.90;100.00;101118.38;5033999;28;20505;-52
2022/01/16 01:19:34;;;;;;;0.40;0.40;;;;;;;2.94;100.00;101141.19;5034399;28;20533;-52
2022/01/16 01:22:04;;;;;;;0.20;0.10;;;;;;;3.06;100.00;101137.88;5042865;28;20495;-52
2022/01/16 01:24:34;;;;;;;0.20;0.20;;;;;;;2.84;100.00;101131.41;5034285;28;20455;-52
2022/01/16 01:29:29;;;;;;;0.57;0.57;;;;;;;3.01;100.00;101050.25;5033912;28;20471;-51
2022/01/16 01:31:56;;;;;;;1.13;1.13;;;;;;;2.87;100.00;101037.81;5035248;28;20506;-52
2022/01/16 01:34:23;;;;;;;0.20;0.10;;;;;;;2.95;100.00;101040.56;5033736;28;20944;-52
2022/01/16 01:36:50;;;;;;;0.20;0.10;;;;;;;2.96;100.00;101030.06;5032695;28;20448;-52
2022/01/16 01:39:20;;;;;;;0.20;0.20;;;;;;;3.00;100.00;101012.59;5033707;28;20555;-53
2022/01/16 01:41:50;;;;;;;0.30;0.20;;;;;;;3.00;100.00;101056.38;5033894;28;20507;-51
2022/01/16 01:52:41;;;;;;;0.97;0.97;;;;;;;2.61;100.00;101100.44;5010434;28;20505;-52
2022/01/16 01:55:09;;;;;;;0.20;0.10;;;;;;;2.78;100.00;101118.19;5033440;28;20455;-52
2022/01/16 01:57:35;;;;;;;0.20;0.10;;;;;;;2.76;100.00;101131.28;5033331;28;20498;-52
2022/01/16 02:00:04;;;;;;;1.70;1.60;;;;;;;2.60;100.00;101139.72;5033240;28;20479;-52
2022/01/16 02:02:39;;;;;;;0.20;0.10;;;;;;;2.65;100.00;101125.84;5033479;28;20484;-52
2022/01/16 02:05:07;;;;;;;0.20;0.20;;;;;;;2.68;100.00;101130.25;5033740;28;20451;-53
2022/01/16 02:07:33;;;;;;;0.20;0.10;;;;;;;2.75;100.00;101116.41;5033299;28;20498;-52
2022/01/16 02:10:00;;;;;;;0.30;0.20;;;;;;;2.81;100.00;101110.34;5033012;28;20467;-51
2022/01/16 02:12:29;;;;;;;0.20;0.10;;;;;;;2.83;100.00;101114.75;5033215;28;20448;-52
2022/01/16 02:15:05;;;;;;;0.70;0.70;;;;;;;2.90;100.00;101124.53;5033106;28;20502;-52
2022/01/16 02:36:17;;;;;;;0.30;0.20;;;;;;;2.74;100.00;101127.75;5037113;28;20505;-52
2022/01/16 02:38:46;;;;;;;0.20;0.10;;;;;;;2.54;100.00;101126.53;5032799;28;20467;-51
2022/01/16 02:41:12;;;;;;;0.20;0.10;;;;;;;2.41;100.00;101116.66;5032443;28;20498;-51
2022/01/16 02:43:45;;;;;;;0.20;0.10;;;;;;;2.35;100.00;101105.22;5039427;28;20499;-52
2022/01/16 02:48:48;;;;;;;0.20;0.10;;;;;;;2.44;100.00;101109.72;5032660;28;21040;-52
2022/01/16 02:51:20;;;;;;;0.20;0.10;;;;;;;2.50;100.00;101108.97;5038199;28;20473;-51
2022/01/16 02:53:48;;;;;;;0.20;0.10;;;;;;;2.50;100.00;101104.59;5038739;28;20922;-52
2022/01/16 02:56:17;;;;;;;0.20;0.10;;;;;;;2.47;100.00;101101.00;5032449;28;20451;-51
2022/01/16 02:58:45;;;;;;;0.20;0.10;;;;;;;2.51;100.00;101090.63;5032219;28;20546;-52
2022/01/16 03:01:12;;;;;;;0.20;0.10;;;;;;;2.44;100.00;101088.72;5032364;28;20504;-52
2022/01/16 03:03:40;;;;;;;0.20;0.20;;;;;;;2.34;100.00;101098.22;5032028;28;20491;-52
2022/01/16 03:06:07;;;;;;;0.20;0.10;;;;;;;2.42;100.00;101090.44;5032475;28;20938;-51
2022/01/16 03:08:34;;;;;;;0.20;0.10;;;;;;;2.33;100.00;101085.94;5032710;28;20522;-51
2022/01/16 03:11:15;;;;;;;0.77;0.77;;;;;;;2.35;100.00;101093.84;5040790;28;20447;-52
2022/01/16 03:13:47;;;;;;;0.20;0.10;;;;;;;2.41;100.00;101078.19;5032353;28;20494;-51
2022/01/16 03:16:20;;;;;;;0.20;0.10;;;;;;;2.32;100.00;101080.66;5032245;28;20451;-51
2022/01/16 03:24:19;;;;;;;0.20;0.10;;;;;;;2.33;100.00;101078.09;5040814;28;20524;-52
2022/01/16 03:26:45;;;;;;;0.20;0.10;;;;;;;2.36;100.00;101075.50;5032308;28;20456;-52
2022/01/16 03:29:12;;;;;;;0.20;0.10;;;;;;;2.31;100.00;101081.50;5031958;28;20479;-51
2022/01/16 03:31:39;;;;;;;0.20;0.10;;;;;;;2.24;100.00;101066.53;5032156;28;20452;-54
2022/01/16 03:34:06;;;;;;;0.20;0.10;;;;;;;2.32;100.00;101068.41;5038451;28;20459;-51
2022/01/16 03:36:33;;;;;;;0.20;0.10;;;;;;;2.47;100.00;101075.69;5021106;28;20451;-51
2022/01/16 03:39:00;;;;;;;0.20;0.10;;;;;;;2.45;100.00;101059.00;5038414;28;20525;-51
2022/01/16 03:41:28;;;;;;;0.30;0.23;;;;;;;2.51;100.00;101043.41;5018733;28;20942;-51
2022/01/16 03:44:01;;;;;;;0.20;0.10;;;;;;;2.62;100.00;101043.56;5031721;28;20491;-52
2022/01/16 03:46:34;;;;;;;3.73;1.80;;;;;;;2.65;100.00;101041.00;5032103;28;20443;-51
2022/01/16 03:49:05;;;;;;;0.20;0.10;;;;;;;2.68;100.00;101031.41;5031823;28;20470;-53
2022/01/16 03:51:32;;;;;;;0.63;0.63;;;;;;;2.72;100.00;101034.06;5032947;28;20496;-51
2022/01/16 03:53:59;;;;;;;0.20;0.10;;;;;;;2.74;100.00;101029.72;5031784;28;20499;-53
2022/01/16 03:56:26;;;;;;;0.20;0.10;;;;;;;2.67;100.00;101024.41;5034800;28;20489;-51
2022/01/16 03:58:53;;;;;;;0.20;0.10;;;;;;;2.70;100.00;101005.19;5034971;28;20476;-51
2022/01/16 04:01:19;;;;;;;0.20;0.20;;;;;;;2.83;100.00;101006.25;5035716;28;20873;-51
2022/01/16 04:03:46;;;;;;;0.20;0.10;;;;;;;2.82;100.00;101017.63;5035396;28;20559;-51
2022/01/16 04:06:13;;;;;;;0.30;0.20;;;;;;;2.81;100.00;101000.97;5035446;28;20830;-52
2022/01/16 04:08:39;;;;;;;0.20;0.10;;;;;;;2.79;100.00;101000.09;5035270;28;20467;-52
2022/01/16 04:11:07;;;;;;;0.20;0.10;;;;;;;2.82;100.00;101009.75;5035492;28;20533;-52
2022/01/16 04:13:34;;;;;;;0.20;0.20;;;;;;;2.75;100.00;101018.41;5035219;28;20490;-51
2022/01/16 04:16:01;;;;;;;0.20;0.10;;;;;;;2.78;100.00;101016.69;5035938;28;20455;-52
2022/01/16 04:18:27;;;;;;;0.20;0.20;;;;;;;2.78;100.00;101010.56;5035094;28;20495;-51
2022/01/16 04:20:54;;;;;;;0.20;0.10;;;;;;;2.82;100.00;101028.13;5035340;28;20448;-52
2022/01/16 04:23:20;;;;;;;0.20;0.10;;;;;;;2.83;100.00;101043.00;5034921;28;20491;-51
2022/01/16 04:25:47;;;;;;;0.20;0.10;;;;;;;2.78;100.00;101044.69;5035318;28;20509;-52
2022/01/16 04:28:14;;;;;;;0.20;0.10;;;;;;;2.63;100.00;101040.09;5035450;28;20894;-52
2022/01/16 04:30:40;;;;;;;0.20;0.10;;;;;;;2.61;100.00;101047.94;5035185;28;20856;-51
2022/01/16 04:33:07;;;;;;;0.20;0.10;;;;;;;2.63;100.00;101048.84;5034908;28;20501;-52
2022/01/16 04:35:34;;;;;;;0.20;0.10;;;;;;;2.71;100.00;101048.06;5034994;28;20872;-52
2022/01/16 04:38:00;;;;;;;0.20;0.10;;;;;;;2.75;100.00;101058.66;5035009;28;20452;-52
2022/01/16 04:40:40;;;;;;;1.30;1.17;;;;;;;2.74;100.00;101062.13;5034994;28;20452;-52
2022/01/16 04:45:55;;;;;;;0.20;0.10;;;;;;;2.58;100.00;101054.84;5034688;28;21303;-52
2022/01/16 04:48:21;;;;;;;0.20;0.10;;;;;;;2.62;100.00;101054.94;5035218;28;20571;-52
2022/01/16 04:50:48;;;;;;;0.20;0.10;;;;;;;2.61;100.00;101057.56;5034846;28;20480;-52
2022/01/16 04:53:15;;;;;;;0.20;0.10;;;;;;;2.63;100.00;101063.72;5034546;28;20953;-51
2022/01/16 04:55:43;;;;;;;1.37;1.37;;;;;;;2.64;100.00;101052.34;5035794;28;20505;-52
2022/01/16 04:58:09;;;;;;;0.20;0.10;;;;;;;2.61;100.00;101049.69;5044053;28;20459;-51
2022/01/16 05:00:36;;;;;;;0.20;0.10;;;;;;;2.60;100.00;101059.28;5034351;28;20502;-51
2022/01/16 05:03:03;;;;;;;0.20;0.10;;;;;;;2.59;100.00;101048.75;5034572;28;20514;-52
2022/01/16 05:05:29;;;;;;;0.20;0.10;;;;;;;2.67;100.00;101040.16;5034291;28;20451;-51
2022/01/16 05:07:56;;;;;;;0.20;0.10;;;;;;;2.68;100.00;101044.53;5034245;28;20447;-52
2022/01/16 05:10:22;;;;;;;0.20;0.10;;;;;;;2.55;100.00;101047.81;5034357;28;20995;-51
2022/01/16 05:12:51;;;;;;;0.20;0.10;;;;;;;2.53;100.00;101061.78;5034296;28;20447;-52
2022/01/16 05:18:02;;;;;;;0.20;0.10;;;;;;;2.53;100.00;101052.16;5034143;28;20443;-51
2022/01/16 05:20:29;;;;;;;2.13;2.10;;;;;;;2.51;100.00;101061.75;5034084;28;20459;-52
2022/01/16 05:22:56;;;;;;;1.63;1.53;;;;;;;2.57;100.00;101059.22;5036808;28;20486;-51
2022/01/16 05:25:22;;;;;;;0.20;0.10;;;;;;;2.52;100.00;101060.91;5034039;28;20451;-51
2022/01/16 05:27:49;;;;;;;0.20;0.10;;;;;;;2.51;100.00;101053.00;5033775;28;20475;-51
2022/01/16 05:30:16;;;;;;;0.20;0.10;;;;;;;2.44;100.00;101067.75;5034040;28;20476;-51
2022/01/16 05:32:42;;;;;;;0.20;0.10;;;;;;;2.57;100.00;101061.84;5033827;28;20451;-51
2022/01/16 05:35:10;;;;;;;0.20;0.10;;;;;;;2.59;100.00;101057.50;5033997;28;20476;-51
2022/01/16 05:37:37;;;;;;;0.20;0.10;;;;;;;2.52;100.00;101057.41;5045754;28;20450;-51
2022/01/16 05:40:04;;;;;;;0.30;0.20;;;;;;;2.50;100.00;101056.50;5033682;28;20503;-52
2022/01/16 05:42:32;;;;;;;0.20;0.10;;;;;;;2.65;100.00;101059.34;5033562;28;20503;-51
2022/01/16 05:44:59;;;;;;;0.20;0.10;;;;;;;2.56;100.00;101073.19;5033343;28;20550;-51
2022/01/16 05:47:26;;;;;;;0.20;0.10;;;;;;;2.64;100.00;101074.22;5033826;28;20501;-51
2022/01/16 05:49:52;;;;;;;0.20;0.10;;;;;;;2.62;100.00;101075.06;5033544;28;20765;-52
2022/01/16 05:52:40;;;;;;;0.20;0.10;;;;;;;2.57;100.00;101080.22;5040038;28;20529;-51
2022/01/16 05:55:07;;;;;;;0.20;0.10;;;;;;;2.57;100.00;101093.34;5032236;28;20452;-52
2022/01/16 05:57:34;;;;;;;0.20;0.10;;;;;;;2.66;100.00;101093.50;5034703;28;20452;-53
2022/01/16 06:00:00;;;;;;;0.20;0.10;;;;;;;2.63;100.00;101088.22;5033215;28;20538;-54
2022/01/16 06:02:27;;;;;;;0.20;0.10;;;;;;;2.69;100.00;101092.66;5033353;28;20451;-53
2022/01/16 06:04:54;;;;;;;0.20;0.10;;;;;;;2.68;100.00;101096.16;5033366;28;20452;-53
2022/01/16 06:07:20;;;;;;;0.20;0.10;;;;;;;2.62;100.00;101088.19;5033095;28;20498;-52
2022/01/16 06:09:47;;;;;;;0.20;0.10;;;;;;;2.58;100.00;101086.34;5033337;28;20765;-54
2022/01/16 06:12:13;;;;;;;0.20;0.10;;;;;;;2.64;100.00;101084.72;5034183;28;20451;-52
2022/01/16 06:14:40;;;;;;;0.20;0.10;;;;;;;2.67;100.00;101087.38;5032910;28;20494;-54
2022/01/16 06:17:07;;;;;;;0.20;0.10;;;;;;;2.78;100.00;101074.44;5033033;28;20833;-52
2022/01/16 06:19:33;;;;;;;0.20;0.10;;;;;;;2.71;100.00;101079.56;5046692;28;20526;-53
2022/01/16 06:22:00;;;;;;;0.20;0.10;;;;;;;2.71;100.00;101084.81;5021675;28;20876;-53
2022/01/16 06:24:27;;;;;;;0.20;0.10;;;;;;;2.75;100.00;101084.91;5032705;28;20492;-52
2022/01/16 06:26:53;;;;;;;0.20;0.10;;;;;;;2.80;100.00;101083.22;5015469;28;20460;-53
2022/01/16 06:29:20;;;;;;;0.20;0.10;;;;;;;2.82;100.00;101096.38;5032684;28;20533;-53
2022/01/16 06:31:47;;;;;;;0.20;0.10;;;;;;;2.86;100.00;101096.44;5032513;28;20452;-52
2022/01/16 06:34:14;;;;;;;0.20;0.10;;;;;;;2.83;100.00;101108.63;5032726;28;20459;-53
2022/01/16 06:36:41;;;;;;;0.20;0.10;;;;;;;2.86;100.00;101106.03;5033516;28;20448;-52
2022/01/16 06:39:10;;;;;;;0.20;0.10;;;;;;;2.75;100.00;101100.66;5032640;28;20570;-53
2022/01/16 06:41:37;;;;;;;0.20;0.20;;;;;;;2.79;100.00;101098.94;5033023;28;20991;-52
2022/01/16 06:44:04;;;;;;;0.20;0.10;;;;;;;2.73;100.00;101097.09;5032695;28;20483;-53
2022/01/16 06:46:32;;;;;;;0.20;0.10;;;;;;;2.74;100.00;101103.22;5036101;28;20842;-53
2022/01/16 06:48:58;;;;;;;0.20;0.10;;;;;;;2.85;100.00;101109.53;5031872;28;20518;-53
2022/01/16 06:51:25;;;;;;;0.20;0.10;;;;;;;2.91;100.00;101109.66;5032664;28;21012;-52
2022/01/16 06:53:53;;;;;;;0.20;0.10;;;;;;;2.88;100.00;101114.84;5032748;28;20459;-53
2022/01/16 06:56:21;;;;;;;0.20;0.10;;;;;;;2.83;100.00;101108.63;5032414;28;20844;-52
2022/01/16 06:58:48;;;;;;;0.20;0.10;;;;;;;2.90;100.00;101124.53;5032442;28;20510;-53
2022/01/16 07:01:16;;;;;;;0.20;0.10;;;;;;;2.90;100.00;101124.53;5032416;28;20463;-53
2022/01/16 07:03:43;;;;;;;0.60;0.60;;;;;;;2.97;100.00;101126.38;5032194;28;20574;-52
2022/01/16 07:06:10;;;;;;;0.20;0.10;;;;;;;2.83;100.00;101140.13;5031698;28;20451;-53
2022/01/16 07:08:37;;;;;;;0.20;0.10;;;;;;;2.86;100.00;101134.94;5030975;28;20525;-52
2022/01/16 07:11:03;;;;;;;0.20;0.10;;;;;;;2.79;100.00;101135.69;5033289;28;20881;-53
2022/01/16 07:13:30;;;;;;;0.20;0.10;;;;;;;2.79;100.00;101148.81;5035763;28;20451;-53
2022/01/16 07:15:57;;;;;;;0.20;0.10;;;;;;;2.80;100.00;101145.34;5032219;28;20513;-52
2022/01/16 07:18:24;;;;;;;0.20;0.10;;;;;;;2.67;100.00;101146.88;5031927;28;20472;-52
2022/01/16 07:20:50;;;;;;;0.20;0.10;;;;;;;2.68;100.00;101157.38;5030897;28;20533;-53
2022/01/16 07:23:17;;;;;;;0.20;0.10;;;;;;;2.85;100.00;101173.41;5042174;28;20491;-52
2022/01/16 07:25:44;;;;;;;0.20;0.10;;;;;;;2.86;100.00;101174.31;5032284;28;20447;-52
2022/01/16 07:28:11;;;;;;;0.57;0.57;;;;;;;2.98;100.00;101180.66;5035760;28;20451;-52
2022/01/16 07:30:39;;;;;;;0.20;0.10;;;;;;;2.98;100.00;101192.91;5031424;28;20444;-52
2022/01/16 07:33:07;;;;;;;0.20;0.10;;;;;;;2.99;100.00;101186.78;5033155;28;20448;-53
2022/01/16 07:35:35;;;;;;;1.17;1.17;;;;;;;3.07;100.00;101202.69;5041880;28;20496;-53
2022/01/16 07:38:06;;;;;;;0.20;0.10;;;;;;;2.83;100.00;101205.75;5041779;28;20452;-52
2022/01/16 07:40:33;;;;;;;0.20;0.10;;;;;;;2.95;100.00;101200.72;5047703;28;20887;-52
2022/01/16 07:43:00;;;;;;;0.20;0.10;;;;;;;2.92;100.00;101204.19;5044147;28;20515;-52
2022/01/16 07:45:27;;;;;;;0.20;0.10;;;;;;;2.85;100.00;101209.28;5035753;28;20869;-52
2022/01/16 07:47:53;;;;;;;0.30;0.20;;;;;;;2.85;100.00;101225.03;5035958;28;20478;-52
2022/01/16 07:50:21;;;;;;;0.20;0.10;;;;;;;2.73;100.00;101219.56;5035770;28;20462;-53
2022/01/16 07:52:48;;;;;;;0.20;0.10;;;;;;;2.84;100.00;101216.28;5022561;28;20499;-52
2022/01/16 07:55:15;;;;;;;0.20;0.10;;;;;;;2.91;100.00;101212.94;5035763;28;20817;-53
2022/01/16 07:57:41;;;;;;;0.20;0.10;;;;;;;2.88;100.00;101218.13;5035376;28;20493;-52
2022/01/16 08:00:27;;;;;;;0.50;0.50;;;;;;;2.74;100.00;101219.63;5035022;28;20787;-53
2022/01/16 08:02:54;;;;;;;0.20;0.10;;;;;;;2.76;100.00;101209.16;5045272;28;20872;-52
2022/01/16 08:05:21;;;;;;;0.20;0.10;;;;;;;2.74;100.00;101216.09;5035389;28;20901;-53
2022/01/16 08:07:48;;;;;;;0.20;0.10;;;;;;;2.74;100.00;101205.59;5040004;28;20458;-53
2022/01/16 08:10:15;;;;;;;0.30;0.30;;;;;;;2.72;100.00;101202.06;5038154;28;20486;-53
2022/01/16 08:12:41;;;;;;;0.20;0.10;;;;;;;2.87;100.00;101211.09;5036371;28;20872;-53
2022/01/16 08:15:08;;;;;;;0.20;0.10;;;;;;;2.90;100.00;101215.53;5034859;28;20521;-53
2022/01/16 08:17:36;;;;;;;0.30;0.20;;;;;;;2.89;100.00;101206.78;5035173;28;20501;-53
2022/01/16 08:20:08;;;;;;;0.30;0.20;;;;;;;2.90;100.00;101205.03;5034701;28;20495;-55
2022/01/16 08:22:36;;;;;;;0.33;0.30;;;;;;;2.95;100.00;101212.13;5035022;28;20447;-54
2022/01/16 08:25:04;;;;;;;0.93;0.93;;;;;;;2.97;100.00;101222.63;5034421;28;20533;-53
2022/01/16 08:27:31;;;;;;;0.57;0.57;;;;;;;2.89;100.00;101219.91;5035183;28;20525;-54
2022/01/16 08:30:05;;;;;;;0.20;0.10;;;;;;;2.85;100.00;101225.03;5038146;28;20470;-54
2022/01/16 08:32:31;;;;;;;0.20;0.10;;;;;;;3.00;100.00;101227.06;5041919;28;20460;-54
2022/01/16 08:34:59;;;;;;;0.20;0.10;;;;;;;2.95;100.00;101232.25;5039631;28;20455;-53
2022/01/16 08:37:26;;;;;;;0.30;0.20;;;;;;;2.93;100.00;101236.59;5047240;28;20505;-54
2022/01/16 08:39:53;;;;;;;0.20;0.10;;;;;;;2.95;100.00;101233.13;5031513;28;20897;-53
2022/01/16 08:42:19;;;;;;;0.20;0.10;;;;;;;3.02;100.00;101242.00;5038646;28;20451;-53
2022/01/16 08:44:46;;;;;;;0.20;0.10;;;;;;;3.00;100.00;101227.94;5036718;28;20497;-55
2022/01/16 08:47:13;;;;;;;1.03;0.90;;;;;;;2.95;100.00;101222.63;5035761;28;20497;-53
2022/01/16 08:49:40;;;;;;;0.20;0.20;;;;;;;3.12;100.00;101232.53;5040313;28;21046;-54
2022/01/16 08:52:06;;;;;;;0.20;0.10;;;;;;;3.26;100.00;101237.13;5032869;28;20456;-54
2022/01/16 08:54:34;;;;;;;0.20;0.10;;;;;;;3.38;100.00;101243.47;5034456;28;20455;-54
2022/01/16 08:57:02;;;;;;;0.20;0.10;;;;;;;3.52;100.00;101242.81;5034758;28;20934;-54
2022/01/16 08:59:29;;;;;;;0.50;0.50;;;;;;;3.42;100.00;101253.16;5034416;28;20925;-54
2022/01/16 09:01:56;;;;;;;0.20;0.10;;;;;;;3.32;100.00;101251.25;5034457;28;20448;-54
2022/01/16 09:04:23;;;;;;;0.20;0.10;;;;;;;3.48;100.00;101255.91;5034407;28;20479;-54
2022/01/16 09:06:49;;;;;;;0.30;0.23;;;;;;;3.52;100.00;101249.81;5034255;28;20448;-54
2022/01/16 09:09:16;;;;;;;0.20;0.10;;;;;;;3.47;100.00;101254.13;5034227;28;20964;-54
2022/01/16 09:11:43;;;;;;;0.20;0.10;;;;;;;3.56;100.00;101264.75;5034382;28;20443;-54
2022/01/16 09:14:09;;;;;;;0.20;0.10;;;;;;;3.50;100.00;101270.81;5034409;28;20448;-54
2022/01/16 09:16:36;;;;;;;0.20;0.10;;;;;;;3.42;100.00;101266.28;5033953;28;20941;-54
2022/01/16 09:19:03;;;;;;;0.20;0.10;;;;;;;3.67;100.00;101262.31;5033924;28;21063;-54
2022/01/16 09:21:29;;;;;;;0.20;0.10;;;;;;;3.62;100.00;101272.75;5034297;28;20455;-54
2022/01/16 09:23:56;;;;;;;0.20;0.10;;;;;;;3.60;100.00;101269.22;5034298;28;20491;-54
2022/01/16 09:26:24;;;;;;;0.30;0.20;;;;;;;3.75;100.00;101263.31;5034204;28;20802;-54
2022/01/16 09:28:50;;;;;;;0.20;0.10;;;;;;;3.67;100.00;101275.44;5034031;28;20468;-54
2022/01/16 09:31:17;;;;;;;0.20;0.10;;;;;;;3.67;100.00;101275.44;5033857;28;20945;-54
2022/01/16 09:33:44;;;;;;;0.20;0.17;;;;;;;3.67;100.00;101284.22;5033877;28;20546;-55
2022/01/16 09:36:11;;;;;;;0.20;0.10;;;;;;;3.60;100.00;101286.75;5034135;28;20452;-54
2022/01/16 09:38:39;;;;;;;0.20;0.10;;;;;;;3.68;100.00;101293.88;5034098;28;20480;-54
2022/01/16 09:41:07;;;;;;;0.20;0.10;;;;;;;3.58;100.00;101284.09;5033864;28;20451;-55
2022/01/16 09:43:35;;;;;;;0.20;0.10;;;;;;;3.74;100.00;101288.72;5033629;28;20950;-54
2022/01/16 09:46:02;;;;;;;0.20;0.10;;;;;;;3.70;100.00;101291.25;5033661;28;20545;-55
2022/01/16 09:48:29;;;;;;;0.20;0.10;;;;;;;3.59;100.00;101295.50;5033908;28;20475;-55
2022/01/16 09:50:56;;;;;;;0.20;0.10;;;;;;;3.82;100.00;101300.22;5033712;28;20456;-54
2022/01/16 09:53:23;;;;;;;1.13;1.13;;;;;;;3.78;100.00;101308.94;5033703;28;20456;-54
2022/01/16 09:55:50;;;;;;;0.20;0.10;;;;;;;3.60;100.00;101307.78;5033241;28;20474;-54
2022/01/16 09:58:19;;;;;;;11.63;1.63;;;;;;;3.49;100.00;101319.00;5032662;28;20523;-54
2022/01/16 10:00:46;;;;;;;0.20;0.10;;;;;;;3.55;100.00;101312.94;5033216;28;20876;-54
2022/01/16 10:03:37;;;;;;;0.20;0.10;;;;;;;3.44;100.00;101314.53;5033440;28;20968;-54
2022/01/16 10:06:17;;;;;;;0.20;0.10;;;;;;;3.54;100.00;101324.31;5019675;28;20480;-54
2022/01/16 10:08:45;;;;;;;0.20;0.10;;;;;;;3.60;100.00;101327.06;5033020;28;20463;-56
2022/01/16 10:11:29;;;;;;;0.20;0.10;;;;;;;3.63;100.00;101315.69;5033010;28;20524;-54
2022/01/16 10:14:14;;;;;;;0.30;0.20;;;;;;;3.54;100.00;101327.81;5020273;28;20849;-54
2022/01/16 10:16:42;;;;;;;0.20;0.10;;;;;;;3.95;100.00;101324.97;5032904;28;20937;-54
2022/01/16 10:19:24;;;;;;;0.20;0.10;;;;;;;3.89;100.00;101331.91;5090082;28;21094;-54
2022/01/16 10:21:51;;;;;;;0.20;0.10;;;;;;;3.56;100.00;101322.59;5076336;28;20476;-55
2022/01/16 10:24:29;;;;;;;3.80;2.20;;;;;;;3.54;100.00;101333.06;5077275;28;20469;-54
2022/01/16 10:27:22;;;;;;;0.77;0.77;;;;;;;3.51;100.00;101322.53;5063764;28;20441;-54
2022/01/16 10:29:56;;;;;;;0.20;0.10;;;;;;;3.83;100.00;101336.19;5075754;28;20493;-55
2022/01/16 10:32:28;;;;;;;0.43;0.43;;;;;;;3.69;100.00;101334.19;5077678;28;20504;-55
2022/01/16 10:35:06;;;;;;;0.20;0.10;;;;;;;3.64;100.00;101327.97;5082621;28;20496;-54
2022/01/16 10:37:34;;;;;;;0.30;0.20;;;;;;;3.76;100.00;101333.44;5083079;28;20977;-55
2022/01/16 10:40:09;;;;;;;0.20;0.10;;;;;;;3.88;100.00;101333.63;5077936;28;20476;-55
2022/01/16 10:42:37;;;;;;;0.20;0.10;;;;;;;3.76;100.00;101322.94;5075877;28;20449;-54
2022/01/16 10:45:15;;;;;;;0.20;0.10;;;;;;;3.78;100.00;101332.59;5079571;28;20454;-54
2022/01/16 10:47:51;;;;;;;0.20;0.10;;;;;;;3.72;100.00;101323.75;5082395;28;20559;-55
2022/01/16 10:50:20;;;;;;;0.20;0.10;;;;;;;3.59;100.00;101320.03;5081653;28;20468;-55
2022/01/16 10:53:04;;;;;;;0.20;0.10;;;;;;;3.74;100.00;101317.66;5075409;28;20506;-55
2022/01/16 10:55:44;;;;;;;0.20;0.10;;;;;;;3.89;100.00;101314.38;5075638;28;20511;-55
2022/01/16 10:58:38;;;;;;;0.60;0.60;;;;;;;3.74;100.00;101322.91;5078306;28;20848;-54
2022/01/16 11:01:14;;;;;;;0.20;0.10;;;;;;;3.56;100.00;101323.50;5065335;28;20532;-54
2022/01/16 11:03:42;;;;;;;0.20;0.10;;;;;;;3.65;100.00;101321.88;5075325;28;20453;-54
2022/01/16 11:06:08;;;;;;;0.20;0.10;;;;;;;3.80;100.00;101324.72;5078896;28;20499;-55
2022/01/16 11:08:36;;;;;;;0.20;0.10;;;;;;;3.62;100.00;101330.59;5080992;28;20500;-55
2022/01/16 11:11:03;;;;;;;0.43;0.43;;;;;;;3.64;100.00;101333.25;5068668;28;20438;-55
2022/01/16 11:13:32;;;;;;;0.20;0.13;;;;;;;3.98;100.00;101339.94;5082088;28;20453;-55
2022/01/16 11:16:03;;;;;;;0.20;0.10;;;;;;;3.84;100.00;101330.09;5079472;28;20445;-54
2022/01/16 11:18:35;;;;;;;0.20;0.10;;;;;;;3.61;100.00;101331.44;5074874;28;20970;-54
2022/01/16 11:23:47;;;;;;;0.20;0.10;;;;;;;3.73;100.00;101325.50;5081794;28;20454;-54
2022/01/16 11:26:16;;;;;;;0.20;0.10;;;;;;;3.77;100.00;101327.31;5081651;28;20506;-54
2022/01/16 11:28:44;;;;;;;0.20;0.10;;;;;;;3.83;100.00;101330.91;5074338;28;20555;-55
2022/01/16 11:31:13;;;;;;;0.20;0.20;;;;;;;3.78;100.00;101321.19;5061701;28;20524;-52
2022/01/16 11:33:41;;;;;;;0.30;0.10;;;;;;;3.81;100.00;101326.50;5065354;28;20462;-52
2022/01/16 11:36:13;;;;;;;0.20;0.10;;;;;;;3.90;100.00;101323.13;5068120;28;20989;-55
2022/01/16 11:38:44;;;;;;;0.20;0.10;;;;;;;3.87;100.00;101329.25;5065409;28;20466;-55
2022/01/16 11:41:14;;;;;;;0.97;0.97;;;;;;;3.98;100.00;101318.91;5061495;28;20852;-55
2022/01/16 11:43:45;;;;;;;2.10;0.33;;;;;;;3.89;100.00;101321.38;5062825;28;20447;-55
2022/01/16 11:46:23;;;;;;;0.20;0.10;;;;;;;3.94;100.00;101322.31;5051113;28;20940;-54
2022/01/16 11:48:55;;;;;;;0.20;0.10;;;;;;;3.86;100.00;101314.31;5067949;28;21014;-55
2022/01/16 11:51:39;;;;;;;0.20;0.10;;;;;;;3.96;100.00;101304.81;5063522;28;20819;-54
2022/01/16 11:54:29;;;;;;;0.30;0.20;;;;;;;4.02;100.00;101297.03;5061134;28;20445;-55
2022/01/16 11:57:24;;;;;;;0.30;0.20;;;;;;;4.11;100.00;101305.94;5061079;28;20504;-55
2022/01/16 12:00:16;;;;;;;0.20;0.10;;;;;;;4.23;100.00;101299.06;5063253;28;20532;-55
2022/01/16 12:02:49;;;;;;;0.20;0.10;;;;;;;4.42;100.00;101303.72;5050157;28;20453;-55
2022/01/16 12:05:26;;;;;;;0.20;0.10;;;;;;;4.37;100.00;101303.63;5060904;28;20500;-55
2022/01/16 12:07:55;;;;;;;0.20;0.10;;;;;;;4.42;100.00;101312.50;5064037;28;20535;-55
2022/01/16 12:10:41;;;;;;;0.20;0.10;;;;;;;4.45;100.00;101303.75;5065418;28;20446;-52
2022/01/16 12:13:49;;;;;;;0.20;0.10;;;;;;;4.77;100.00;101306.75;5067806;28;20456;-55
2022/01/16 12:16:43;;;;;;;0.20;0.10;;;;;;;4.74;100.00;101309.34;5067013;28;20484;-55
2022/01/16 12:19:34;;;;;;;0.20;0.10;;;;;;;4.77;100.00;101306.75;5053696;28;20477;-55
2022/01/16 12:22:01;;;;;;;0.20;0.10;;;;;;;4.83;100.00;101309.47;5060411;28;20965;-54